Time;durP1;ratioP1;P1;durP2;ratioP2;P2;SDS_P1;SDS_P2;PMS_P1;PMS_P2;Temp;Humidity;BMP_temperature;BMP_pressure;BME280_temperature;BME280_humidity;BME280_pressure;Samples;Min_cycle;Max_cycle;Signal;HPM_P1;HPM_P2
2023/10/21 00:07:29;;;;;;;1.30;0.40;;;;;;;;;;20811135;28;20242;-75
2023/10/21 00:17:31;;;;;;;0.93;0.30;;;;;;;;;;20775813;28;20602;-76
2023/10/21 00:27:32;;;;;;;0.27;0.27;;;14.60;99.90;;;;;;20776721;28;20348;-75
2023/10/21 00:37:34;;;;;;;0.30;0.30;;;;;;;;;;20740724;28;20281;-75
2023/10/21 00:47:35;;;;;;;0.20;0.20;;;;;;;;;;20746678;28;20219;-76
2023/10/21 00:57:37;;;;;;;0.23;0.23;;;14.50;99.90;;;;;;20719869;28;20591;-75
2023/10/21 01:07:43;;;;;;;0.10;0.10;;;;;;;;;;20719848;28;20238;-76
2023/10/21 01:17:51;;;;;;;0.20;0.20;;;;;;;;;;20744635;28;20233;-76
2023/10/21 01:27:56;;;;;;;0.77;0.20;;;14.60;99.90;;;;;;20763573;28;20214;-75
2023/10/21 01:37:58;;;;;;;0.40;0.33;;;;;;;;;;20756936;28;20223;-75
2023/10/21 01:48:00;;;;;;;0.10;0.10;;;;;;;;;;20749534;28;20232;-75
2023/10/21 01:58:02;;;;;;;0.57;0.30;;;;;;;;;;20708610;28;20219;-77
2023/10/21 02:08:04;;;;;;;0.37;0.27;;;;;;;;;;20745735;28;20207;-76
2023/10/21 02:18:06;;;;;;;0.30;0.30;;;;;;;;;;20761342;28;20646;-75
2023/10/21 02:28:09;;;;;;;1.63;0.33;;;;;;;;;;20763331;28;20760;-75
2023/10/21 02:38:12;;;;;;;0.20;0.20;;;;;;;;;;20724984;28;20222;-75
2023/10/21 02:48:13;;;;;;;0.20;0.20;;;;;;;;;;20769622;28;20270;-74
2023/10/21 02:58:15;;;;;;;0.20;0.20;;;;;;;;;;20755294;28;20226;-74
2023/10/21 03:08:17;;;;;;;0.20;0.20;;;;;;;;;;20785248;28;20226;-74
2023/10/21 03:18:19;;;;;;;0.17;0.17;;;;;;;;;;20826236;28;20288;-75
2023/10/21 03:28:22;;;;;;;0.13;0.13;;;;;;;;;;20798729;28;20324;-77
2023/10/21 03:38:24;;;;;;;0.13;0.13;;;;;;;;;;20743866;28;20850;-75
2023/10/21 03:48:26;;;;;;;0.20;0.20;;;;;;;;;;20732776;28;20218;-74
2023/10/21 03:58:27;;;;;;;0.70;0.30;;;;;;;;;;20804183;28;20280;-75
2023/10/21 04:08:31;;;;;;;0.20;0.20;;;;;;;;;;20770276;28;20223;-74
2023/10/21 04:24:39;;;;;;;2.27;0.30;;;;;;;;;;21040899;27;20574;-70
2023/10/21 04:34:42;;;;;;;1.03;0.20;;;;;;;;;;20933096;22;20280;-70
2023/10/21 04:44:44;;;;;;;0.30;0.20;;;;;;;;;;20846475;28;20668;-70
2023/10/21 04:54:46;;;;;;;0.73;0.20;;;;;;;;;;20809987;28;20211;-68
2023/10/21 05:04:49;;;;;;;0.30;0.30;;;14.50;99.90;;;;;;20864477;28;20206;-69
2023/10/21 05:14:51;;;;;;;0.20;0.20;;;;;;;;;;20874079;28;20206;-70
2023/10/21 05:24:53;;;;;;;0.20;0.20;;;;;;;;;;20827813;28;20228;-71
2023/10/21 05:34:54;;;;;;;0.20;0.20;;;;;;;;;;20800901;28;20222;-69
2023/10/21 05:44:56;;;;;;;0.20;0.20;;;;;;;;;;20753826;28;20281;-70
2023/10/21 05:54:58;;;;;;;0.20;0.20;;;;;;;;;;20736815;28;20215;-70
2023/10/21 06:05:00;;;;;;;0.20;0.20;;;;;;;;;;20775050;28;20211;-69
2023/10/21 06:15:02;;;;;;;0.40;0.30;;;14.40;99.90;;;;;;20798910;28;20219;-69
2023/10/21 06:25:05;;;;;;;0.60;0.30;;;;;;;;;;20733804;28;20933;-69
2023/10/21 06:35:07;;;;;;;0.30;0.30;;;;;;;;;;20770459;28;20218;-69
2023/10/21 06:45:09;;;;;;;0.30;0.30;;;;;;;;;;20731798;28;20222;-70
2023/10/21 06:55:11;;;;;;;1.27;0.40;;;;;;;;;;20720146;28;20223;-70
2023/10/21 07:05:14;;;;;;;0.20;0.20;;;;;;;;;;20743491;28;20225;-70
2023/10/21 07:15:16;;;;;;;0.20;0.20;;;;;;;;;;20778221;28;20226;-70
2023/10/21 07:25:21;;;;;;;1.37;0.33;;;;;;;;;;20759310;28;20288;-70
2023/10/21 07:35:22;;;;;;;0.53;0.20;;;;;;;;;;20725874;28;20222;-69
2023/10/21 07:45:24;;;;;;;0.40;0.20;;;;;;;;;;20758026;28;20277;-70
2023/10/21 07:55:28;;;;;;;0.20;0.20;;;;;;;;;;20748532;28;20207;-70
2023/10/21 08:05:30;;;;;;;0.83;0.20;;;;;;;;;;20743131;28;20716;-70
2023/10/21 08:15:32;;;;;;;0.30;0.20;;;;;;;;;;20762123;28;20281;-69
2023/10/21 08:25:34;;;;;;;1.60;0.40;;;;;;;;;;20775651;28;20641;-70
2023/10/21 08:35:36;;;;;;;1.13;0.20;;;;;;;;;;20748063;28;20293;-71
2023/10/21 08:45:39;;;;;;;1.60;0.40;;;15.50;99.90;;;;;;20778560;28;20410;-71
2023/10/21 08:55:41;;;;;;;0.20;0.20;;;;;;;;;;20761164;28;20678;-71
2023/10/21 09:06:04;;;;;;;0.37;0.30;;;;;;;;;;20753926;28;20252;-71
2023/10/21 09:16:32;;;;;;;0.73;0.30;;;16.10;99.90;;;;;;20791176;28;20281;-70
2023/10/21 09:26:35;;;;;;;0.63;0.30;;;;;;;;;;20794664;28;20276;-71
2023/10/21 09:36:40;;;;;;;0.97;0.40;;;;;;;;;;20776014;28;20319;-70
2023/10/21 09:46:46;;;;;;;0.77;0.50;;;;;;;;;;20779458;28;20218;-71
2023/10/21 09:56:50;;;;;;;1.17;0.27;;;16.00;99.90;;;;;;20742518;28;20278;-71
2023/10/21 10:06:58;;;;;;;2.20;0.37;;;;;;;;;;20765256;28;20230;-71
2023/10/21 10:17:00;;;;;;;0.83;0.37;;;;;;;;;;20763637;28;20210;-71
2023/10/21 10:27:08;;;;;;;0.87;0.30;;;;;;;;;;20770929;28;20222;-71
2023/10/21 10:37:29;;;;;;;1.30;0.33;;;;;;;;;;20737742;23;20239;-68
2023/10/21 10:47:31;;;;;;;0.50;0.30;;;;;;;;;;20718152;28;20215;-68
2023/10/21 10:57:33;;;;;;;0.77;0.30;;;;;;;;;;20714382;28;20219;-68
2023/10/21 11:07:35;;;;;;;1.20;0.40;;;;;;;;;;20725879;28;20211;-67
2023/10/21 11:17:37;;;;;;;1.13;0.30;;;;;;;;;;20707959;28;20277;-68
2023/10/21 11:27:40;;;;;;;0.63;0.30;;;;;;;;;;20705784;28;20222;-68
2023/10/21 11:37:43;;;;;;;0.50;0.37;;;;;;;;;;20705660;28;20282;-68
2023/10/21 11:47:45;;;;;;;0.67;0.37;;;;;;;;;;20721567;28;20288;-68
2023/10/21 12:48:33;;;;;;;0.60;0.33;;;;;;;;;;20719224;28;20222;-68
2023/10/21 12:58:35;;;;;;;0.90;0.30;;;;;;;;;;20718479;28;20218;-68
2023/10/21 13:08:37;;;;;;;0.43;0.30;;;;;;;;;;20733707;28;20215;-68
2023/10/21 13:18:39;;;;;;;0.20;0.20;;;;;;;;;;20716417;28;20207;-68
2023/10/21 13:28:41;;;;;;;0.83;0.30;;;;;;;;;;20715987;28;20277;-67
2023/10/21 13:38:43;;;;;;;1.03;0.40;;;;;;;;;;20732423;28;20215;-67
2023/10/21 13:48:45;;;;;;;0.67;0.40;;;;;;;;;;20731277;28;20226;-67
2023/10/21 13:58:47;;;;;;;0.60;0.40;;;;;;;;;;20714674;28;20230;-67
2023/10/21 14:08:49;;;;;;;2.63;0.40;;;;;;;;;;20746080;28;20218;-68
2023/10/21 14:18:51;;;;;;;1.03;0.47;;;;;;;;;;20729685;28;20242;-68
2023/10/21 14:28:55;;;;;;;0.30;0.30;;;;;;;;;;20727102;28;20215;-68
2023/10/21 14:38:57;;;;;;;0.47;0.20;;;;;;;;;;20735546;28;20780;-68
2023/10/21 14:49:01;;;;;;;1.53;0.40;;;;;;;;;;20720182;28;20625;-67
2023/10/21 14:59:05;;;;;;;0.60;0.30;;;;;;;;;;20725768;28;20231;-68
2023/10/21 15:09:07;;;;;;;1.40;0.30;;;;;;;;;;20740973;28;20226;-68
2023/10/21 15:19:09;;;;;;;0.23;0.20;;;;;;;;;;20708964;28;20219;-68
2023/10/21 15:29:11;;;;;;;0.63;0.30;;;;;;;;;;20707728;28;20729;-67
2023/10/21 15:39:18;;;;;;;1.83;0.40;;;;;;;;;;20706962;28;20603;-68
2023/10/21 15:49:20;;;;;;;3.33;0.33;;;;;;;;;;20716219;28;20219;-68
2023/10/21 15:59:22;;;;;;;1.00;0.40;;;16.60;99.90;;;;;;20705464;28;20207;-67
2023/10/21 16:09:28;;;;;;;1.43;0.50;;;;;;;;;;20720955;28;20230;-68
2023/10/21 16:19:30;;;;;;;0.50;0.20;;;;;;;;;;20700764;28;20211;-67
2023/10/21 16:29:31;;;;;;;2.33;0.50;;;;;;;;;;20700278;28;20305;-68
2023/10/21 16:39:33;;;;;;;45.70;25.90;;;;;;;;;;20702825;28;20742;-68
2023/10/21 16:49:35;;;;;;;2.10;1.13;;;;;;;;;;20702974;28;20219;-68
2023/10/21 16:59:37;;;;;;;2.33;0.80;;;;;;;;;;20703384;28;20212;-68
2023/10/21 17:09:39;;;;;;;1.37;0.90;;;;;;;;;;20718578;28;20808;-68
2023/10/21 17:19:41;;;;;;;1.97;1.03;;;;;;;;;;20701539;28;20274;-67
2023/10/21 17:29:43;;;;;;;1.93;0.90;;;;;;;;;;20720415;28;20277;-67
2023/10/21 17:39:47;;;;;;;1.03;0.80;;;;;;;;;;20714774;28;20226;-67
2023/10/21 17:49:48;;;;;;;1.53;0.40;;;;;;;;;;20712700;28;20277;-67
2023/10/21 17:59:50;;;;;;;4.90;2.87;;;;;;;;;;20730383;28;20276;-67
2023/10/21 18:09:52;;;;;;;4.13;1.70;;;;;;;;;;20712610;28;20285;-67
2023/10/21 18:19:54;;;;;;;3.60;0.87;;;;;;;;;;20712144;28;20285;-67
2023/10/21 18:29:56;;;;;;;0.70;0.40;;;;;;;;;;20728107;28;20250;-67
2023/10/21 18:39:58;;;;;;;2.17;0.60;;;;;;;;;;20733683;28;20531;-68
2023/10/21 18:50:00;;;;;;;2.20;1.10;;;;;;;;;;20710445;28;20640;-68
2023/10/21 19:00:02;;;;;;;1.40;0.70;;;;;;;;;;20747280;23;20271;-89
2023/10/21 19:10:06;;;;;;;4.13;2.00;;;;;;;;;;20660599;28;20223;-88
2023/10/21 19:20:08;;;;;;;3.33;2.10;;;;;;;;;;20652071;28;20236;-88
2023/10/21 19:30:11;;;;;;;2.50;1.70;;;;;;;;;;20664894;28;20286;-88
2023/10/21 19:40:13;;;;;;;2.83;1.90;;;;;;;;;;20665801;28;20274;-88
2023/10/21 19:50:16;;;;;;;2.10;1.10;;;;;;;;;;20667640;28;20220;-88
2023/10/21 20:00:18;;;;;;;1.50;0.87;;;;;;;;;;20680482;28;20232;-88
2023/10/21 20:10:23;;;;;;;2.57;0.87;;;;;;;;;;20654231;28;20223;-88
2023/10/21 20:20:29;;;;;;;3.33;0.70;;;;;;;;;;20648690;28;20211;-88
2023/10/21 20:30:31;;;;;;;3.13;1.80;;;;;;;;;;20643859;28;20585;-89
2023/10/21 20:40:33;;;;;;;2.57;1.43;;;;;;;;;;20667447;28;20243;-89
2023/10/21 20:50:38;;;;;;;1.90;1.30;;;;;;;;;;20666207;28;20219;-89
2023/10/21 21:00:40;;;;;;;1.80;0.83;;;;;;;;;;20638130;28;20795;-88
2023/10/21 21:10:45;;;;;;;0.90;0.60;;;;;;;;;;20688391;28;20230;-89
2023/10/21 21:20:47;;;;;;;3.10;1.40;;;;;;;;;;20676630;28;20208;-89
2023/10/21 21:30:53;;;;;;;2.73;0.80;;;;;;;;;;20686708;28;20227;-88
2023/10/21 21:40:56;;;;;;;1.10;0.50;;;;;;;;;;20690673;28;20286;-89
2023/10/21 21:51:02;;;;;;;1.53;0.83;;;;;;;;;;20678265;28;20314;-89
2023/10/21 22:01:05;;;;;;;1.10;0.50;;;;;;;;;;20653526;28;20204;-90
2023/10/21 22:11:09;;;;;;;2.83;0.60;;;;;;;;;;20673039;22;20256;31
2023/10/21 22:21:14;;;;;;;1.27;0.50;;;;;;;;;;20661905;28;20237;-65
2023/10/21 22:31:16;;;;;;;0.50;0.40;;;;;;;;;;20647962;28;20286;-65
2023/10/21 22:41:18;;;;;;;1.20;0.40;;;;;;;;;;20642092;28;20212;-66
2023/10/21 22:51:20;;;;;;;0.63;0.40;;;;;;;;;;20636823;28;20649;-64
2023/10/21 23:01:22;;;;;;;2.77;0.70;;;;;;;;;;20627311;28;20704;-65
2023/10/21 23:11:24;;;;;;;1.20;0.43;;;;;;;;;;20639405;28;20220;-65
2023/10/21 23:21:26;;;;;;;0.93;0.60;;;;;;;;;;20619845;28;20212;-65
2023/10/21 23:31:28;;;;;;;2.47;0.30;;;;;;;;;;20624834;28;20220;-65
2023/10/21 23:41:29;;;;;;;1.03;0.50;;;;;;;;;;20610509;28;20280;-65
2023/10/21 23:51:31;;;;;;;0.70;0.50;;;;;;;;;;20639727;28;20224;-65
